sensor_id;sensor_type;location;lat;lon;timestamp;temperature;humidity
37050;DHT22;22958;51.232;6.826;2023-02-01T00:01:30;7.00;99.90
37050;DHT22;22958;51.232;6.826;2023-02-01T00:03:56;7.00;99.90
37050;DHT22;22958;51.232;6.826;2023-02-01T00:06:22;6.90;99.90
37050;DHT22;22958;51.232;6.826;2023-02-01T00:08:48;7.00;99.90
37050;DHT22;22958;51.232;6.826;2023-02-01T00:11:13;7.00;99.90
37050;DHT22;22958;51.232;6.826;2023-02-01T00:13:41;7.00;99.90
37050;DHT22;22958;51.232;6.826;2023-02-01T00:16:32;7.00;99.90
37050;DHT22;22958;51.232;6.826;2023-02-01T00:19:01;7.00;99.90
37050;DHT22;22958;51.232;6.826;2023-02-01T00:21:27;6.90;99.90
37050;DHT22;22958;51.232;6.826;2023-02-01T00:23:53;7.00;99.90
37050;DHT22;22958;51.232;6.826;2023-02-01T00:26:38;7.00;99.90
37050;DHT22;22958;51.232;6.826;2023-02-01T00:29:06;7.00;99.90
37050;DHT22;22958;51.232;6.826;2023-02-01T00:31:32;6.90;99.90
37050;DHT22;22958;51.232;6.826;2023-02-01T00:33:58;7.00;99.90
37050;DHT22;22958;51.232;6.826;2023-02-01T00:36:24;7.00;99.90
37050;DHT22;22958;51.232;6.826;2023-02-01T00:38:50;7.00;99.90
37050;DHT22;22958;51.232;6.826;2023-02-01T00:41:18;7.00;99.90
37050;DHT22;22958;51.232;6.826;2023-02-01T00:43:45;7.00;99.90
37050;DHT22;22958;51.232;6.826;2023-02-01T00:46:12;6.90;99.90
37050;DHT22;22958;51.232;6.826;2023-02-01T00:48:38;6.90;99.90
37050;DHT22;22958;51.232;6.826;2023-02-01T00:51:12;7.00;99.90
37050;DHT22;22958;51.232;6.826;2023-02-01T00:53:38;7.00;99.90
37050;DHT22;22958;51.232;6.826;2023-02-01T00:56:03;7.00;99.90
37050;DHT22;22958;51.232;6.826;2023-02-01T00:58:30;6.90;99.90
37050;DHT22;22958;51.232;6.826;2023-02-01T01:01:10;6.90;99.90
37050;DHT22;22958;51.232;6.826;2023-02-01T01:03:38;6.90;99.90
37050;DHT22;22958;51.232;6.826;2023-02-01T01:06:15;6.80;99.90
37050;DHT22;22958;51.232;6.826;2023-02-01T01:08:41;6.70;99.90
37050;DHT22;22958;51.232;6.826;2023-02-01T01:11:10;6.80;99.90
37050;DHT22;22958;51.232;6.826;2023-02-01T01:13:36;6.80;99.90
37050;DHT22;22958;51.232;6.826;2023-02-01T01:16:05;6.90;99.90
37050;DHT22;22958;51.232;6.826;2023-02-01T01:18:32;6.80;99.90
37050;DHT22;22958;51.232;6.826;2023-02-01T01:20:59;6.80;99.90
37050;DHT22;22958;51.232;6.826;2023-02-01T01:23:25;6.70;99.90
37050;DHT22;22958;51.232;6.826;2023-02-01T01:25:51;6.70;99.90
37050;DHT22;22958;51.232;6.826;2023-02-01T01:28:16;6.80;99.90
37050;DHT22;22958;51.232;6.826;2023-02-01T01:30:42;6.80;99.90
37050;DHT22;22958;51.232;6.826;2023-02-01T01:33:08;6.80;99.90
37050;DHT22;22958;51.232;6.826;2023-02-01T01:35:33;6.70;99.90
37050;DHT22;22958;51.232;6.826;2023-02-01T01:38:00;6.80;99.90
37050;DHT22;22958;51.232;6.826;2023-02-01T01:40:27;6.70;99.90
37050;DHT22;22958;51.232;6.826;2023-02-01T01:42:52;6.70;99.90
37050;DHT22;22958;51.232;6.826;2023-02-01T01:45:29;6.70;99.90
37050;DHT22;22958;51.232;6.826;2023-02-01T01:48:04;6.70;99.90
37050;DHT22;22958;51.232;6.826;2023-02-01T01:50:33;6.80;99.90
37050;DHT22;22958;51.232;6.826;2023-02-01T01:53:03;6.80;99.90
37050;DHT22;22958;51.232;6.826;2023-02-01T01:55:35;6.70;99.90
37050;DHT22;22958;51.232;6.826;2023-02-01T01:58:05;6.70;99.90
37050;DHT22;22958;51.232;6.826;2023-02-01T02:00:32;6.60;99.90
37050;DHT22;22958;51.232;6.826;2023-02-01T02:03:10;6.60;99.90
37050;DHT22;22958;51.232;6.826;2023-02-01T02:05:37;6.60;99.90
37050;DHT22;22958;51.232;6.826;2023-02-01T02:08:03;6.50;99.90
37050;DHT22;22958;51.232;6.826;2023-02-01T02:10:28;6.50;99.90
37050;DHT22;22958;51.232;6.826;2023-02-01T02:13:14;6.50;99.90
37050;DHT22;22958;51.232;6.826;2023-02-01T02:18:42;6.40;99.90
37050;DHT22;22958;51.232;6.826;2023-02-01T02:21:14;6.50;99.90
37050;DHT22;22958;51.232;6.826;2023-02-01T02:24:09;6.40;99.90
37050;DHT22;22958;51.232;6.826;2023-02-01T02:26:59;6.50;99.90
37050;DHT22;22958;51.232;6.826;2023-02-01T02:30:17;6.50;99.90
37050;DHT22;22958;51.232;6.826;2023-02-01T02:41:18;6.30;99.90
37050;DHT22;22958;51.232;6.826;2023-02-01T02:44:10;6.30;99.90
37050;DHT22;22958;51.232;6.826;2023-02-01T02:47:00;6.20;99.90
37050;DHT22;22958;51.232;6.826;2023-02-01T02:50:49;6.20;99.90
37050;DHT22;22958;51.232;6.826;2023-02-01T02:53:41;6.10;99.90
37050;DHT22;22958;51.232;6.826;2023-02-01T02:56:23;6.20;99.90
37050;DHT22;22958;51.232;6.826;2023-02-01T02:59:09;6.10;99.90
37050;DHT22;22958;51.232;6.826;2023-02-01T03:01:55;6.00;99.90
37050;DHT22;22958;51.232;6.826;2023-02-01T03:04:39;6.00;99.90
37050;DHT22;22958;51.232;6.826;2023-02-01T03:07:14;6.00;99.90
37050;DHT22;22958;51.232;6.826;2023-02-01T03:09:41;6.00;99.90
37050;DHT22;22958;51.232;6.826;2023-02-01T03:12:12;6.10;99.90
37050;DHT22;22958;51.232;6.826;2023-02-01T03:15:03;6.20;99.90
37050;DHT22;22958;51.232;6.826;2023-02-01T03:17:35;6.20;99.90
37050;DHT22;22958;51.232;6.826;2023-02-01T03:20:06;6.30;99.90
37050;DHT22;22958;51.232;6.826;2023-02-01T03:22:33;6.30;99.90
37050;DHT22;22958;51.232;6.826;2023-02-01T03:25:12;6.30;99.90
37050;DHT22;22958;51.232;6.826;2023-02-01T03:27:51;6.20;99.90
37050;DHT22;22958;51.232;6.826;2023-02-01T03:30:22;6.20;99.90
37050;DHT22;22958;51.232;6.826;2023-02-01T03:32:51;6.20;99.90
37050;DHT22;22958;51.232;6.826;2023-02-01T03:36:10;6.20;99.90
37050;DHT22;22958;51.232;6.826;2023-02-01T03:38:38;6.10;99.90
37050;DHT22;22958;51.232;6.826;2023-02-01T03:41:33;6.30;99.90
37050;DHT22;22958;51.232;6.826;2023-02-01T03:44:24;6.50;99.90
37050;DHT22;22958;51.232;6.826;2023-02-01T03:46:58;6.40;99.90
37050;DHT22;22958;51.232;6.826;2023-02-01T03:49:29;6.40;99.90
37050;DHT22;22958;51.232;6.826;2023-02-01T03:51:57;6.40;99.90
37050;DHT22;22958;51.232;6.826;2023-02-01T03:54:23;6.40;99.90
37050;DHT22;22958;51.232;6.826;2023-02-01T03:56:51;6.50;99.90
37050;DHT22;22958;51.232;6.826;2023-02-01T03:59:19;6.60;99.90
37050;DHT22;22958;51.232;6.826;2023-02-01T04:01:44;6.60;99.90
37050;DHT22;22958;51.232;6.826;2023-02-01T04:04:10;6.60;99.90
37050;DHT22;22958;51.232;6.826;2023-02-01T04:06:35;6.60;99.90
37050;DHT22;22958;51.232;6.826;2023-02-01T04:09:01;6.60;99.90
37050;DHT22;22958;51.232;6.826;2023-02-01T04:11:28;6.60;99.90
37050;DHT22;22958;51.232;6.826;2023-02-01T04:13:54;6.60;99.90
37050;DHT22;22958;51.232;6.826;2023-02-01T04:16:19;6.60;99.90
37050;DHT22;22958;51.232;6.826;2023-02-01T04:18:45;6.60;99.90
37050;DHT22;22958;51.232;6.826;2023-02-01T04:21:10;6.60;99.90
37050;DHT22;22958;51.232;6.826;2023-02-01T04:23:36;6.60;99.90
37050;DHT22;22958;51.232;6.826;2023-02-01T04:26:03;6.60;99.90
37050;DHT22;22958;51.232;6.826;2023-02-01T04:28:29;6.60;99.90
37050;DHT22;22958;51.232;6.826;2023-02-01T04:30:56;6.60;99.90
37050;DHT22;22958;51.232;6.826;2023-02-01T04:33:21;6.50;99.90
37050;DHT22;22958;51.232;6.826;2023-02-01T04:35:47;6.50;99.90
37050;DHT22;22958;51.232;6.826;2023-02-01T04:38:13;6.40;99.90
37050;DHT22;22958;51.232;6.826;2023-02-01T04:40:38;6.40;99.90
37050;DHT22;22958;51.232;6.826;2023-02-01T04:43:04;6.30;99.90
37050;DHT22;22958;51.232;6.826;2023-02-01T04:45:30;6.30;99.90
37050;DHT22;22958;51.232;6.826;2023-02-01T04:47:56;6.30;99.90
37050;DHT22;22958;51.232;6.826;2023-02-01T04:50:21;6.30;99.90
37050;DHT22;22958;51.232;6.826;2023-02-01T04:52:49;6.20;99.90
37050;DHT22;22958;51.232;6.826;2023-02-01T04:55:14;6.20;99.90
37050;DHT22;22958;51.232;6.826;2023-02-01T04:57:40;6.20;99.90
37050;DHT22;22958;51.232;6.826;2023-02-01T05:00:07;6.20;99.90
37050;DHT22;22958;51.232;6.826;2023-02-01T05:02:33;6.20;99.90
37050;DHT22;22958;51.232;6.826;2023-02-01T05:05:00;6.20;99.90
37050;DHT22;22958;51.232;6.826;2023-02-01T05:07:25;6.20;99.90
37050;DHT22;22958;51.232;6.826;2023-02-01T05:09:51;6.20;99.90
37050;DHT22;22958;51.232;6.826;2023-02-01T05:12:17;6.30;99.90
37050;DHT22;22958;51.232;6.826;2023-02-01T05:15:01;6.30;99.90
37050;DHT22;22958;51.232;6.826;2023-02-01T05:17:26;6.30;99.90
37050;DHT22;22958;51.232;6.826;2023-02-01T05:19:52;6.30;99.90
37050;DHT22;22958;51.232;6.826;2023-02-01T05:22:17;6.20;99.90
37050;DHT22;22958;51.232;6.826;2023-02-01T05:24:44;6.20;99.90
37050;DHT22;22958;51.232;6.826;2023-02-01T05:27:09;6.20;99.90
37050;DHT22;22958;51.232;6.826;2023-02-01T05:29:35;6.10;99.90
37050;DHT22;22958;51.232;6.826;2023-02-01T05:32:00;6.20;99.90
37050;DHT22;22958;51.232;6.826;2023-02-01T05:34:26;6.20;99.90
37050;DHT22;22958;51.232;6.826;2023-02-01T05:36:51;6.20;99.90
37050;DHT22;22958;51.232;6.826;2023-02-01T05:39:17;6.20;99.90
37050;DHT22;22958;51.232;6.826;2023-02-01T05:41:42;6.10;99.90
37050;DHT22;22958;51.232;6.826;2023-02-01T05:44:08;6.10;99.90
37050;DHT22;22958;51.232;6.826;2023-02-01T05:46:34;6.10;99.90
37050;DHT22;22958;51.232;6.826;2023-02-01T05:49:00;6.10;99.90
37050;DHT22;22958;51.232;6.826;2023-02-01T05:51:26;6.10;99.90
37050;DHT22;22958;51.232;6.826;2023-02-01T05:53:51;6.10;99.90
37050;DHT22;22958;51.232;6.826;2023-02-01T05:56:17;6.10;99.90
37050;DHT22;22958;51.232;6.826;2023-02-01T05:58:42;6.10;99.90
37050;DHT22;22958;51.232;6.826;2023-02-01T06:01:08;6.00;99.90
37050;DHT22;22958;51.232;6.826;2023-02-01T06:03:33;6.00;99.90
37050;DHT22;22958;51.232;6.826;2023-02-01T06:05:59;6.00;99.90
37050;DHT22;22958;51.232;6.826;2023-02-01T06:08:26;6.00;99.90
37050;DHT22;22958;51.232;6.826;2023-02-01T06:10:57;6.10;99.90
37050;DHT22;22958;51.232;6.826;2023-02-01T06:13:23;6.00;99.90
37050;DHT22;22958;51.232;6.826;2023-02-01T06:15:49;6.00;99.90
37050;DHT22;22958;51.232;6.826;2023-02-01T06:18:14;6.00;99.90
37050;DHT22;22958;51.232;6.826;2023-02-01T06:20:41;6.00;99.90
37050;DHT22;22958;51.232;6.826;2023-02-01T06:23:06;6.00;99.90
37050;DHT22;22958;51.232;6.826;2023-02-01T06:25:32;6.10;99.90
37050;DHT22;22958;51.232;6.826;2023-02-01T06:28:00;6.10;99.90
37050;DHT22;22958;51.232;6.826;2023-02-01T06:30:26;6.20;99.90
37050;DHT22;22958;51.232;6.826;2023-02-01T06:32:52;6.20;99.90
37050;DHT22;22958;51.232;6.826;2023-02-01T06:35:20;6.20;99.90
37050;DHT22;22958;51.232;6.826;2023-02-01T06:37:45;6.20;99.90
37050;DHT22;22958;51.232;6.826;2023-02-01T06:40:11;6.20;99.90
37050;DHT22;22958;51.232;6.826;2023-02-01T06:42:37;6.30;99.90
37050;DHT22;22958;51.232;6.826;2023-02-01T06:45:03;6.20;99.90
37050;DHT22;22958;51.232;6.826;2023-02-01T06:47:28;6.30;99.90
37050;DHT22;22958;51.232;6.826;2023-02-01T06:49:54;6.30;99.90
37050;DHT22;22958;51.232;6.826;2023-02-01T06:52:19;6.30;99.90
37050;DHT22;22958;51.232;6.826;2023-02-01T06:54:45;6.30;99.90
37050;DHT22;22958;51.232;6.826;2023-02-01T06:57:10;6.40;99.90
37050;DHT22;22958;51.232;6.826;2023-02-01T06:59:36;6.40;99.90
37050;DHT22;22958;51.232;6.826;2023-02-01T07:02:02;6.40;99.90
37050;DHT22;22958;51.232;6.826;2023-02-01T07:04:27;6.40;99.90
37050;DHT22;22958;51.232;6.826;2023-02-01T07:06:53;6.40;99.90
37050;DHT22;22958;51.232;6.826;2023-02-01T07:09:18;6.50;99.90
37050;DHT22;22958;51.232;6.826;2023-02-01T07:11:44;6.50;99.90
37050;DHT22;22958;51.232;6.826;2023-02-01T07:14:10;6.50;99.90
37050;DHT22;22958;51.232;6.826;2023-02-01T07:16:36;6.50;99.90
37050;DHT22;22958;51.232;6.826;2023-02-01T07:19:02;6.50;99.90
37050;DHT22;22958;51.232;6.826;2023-02-01T07:21:27;6.50;99.90
37050;DHT22;22958;51.232;6.826;2023-02-01T07:23:54;6.50;99.90
37050;DHT22;22958;51.232;6.826;2023-02-01T07:26:20;6.50;99.90
37050;DHT22;22958;51.232;6.826;2023-02-01T07:28:45;6.50;99.90
37050;DHT22;22958;51.232;6.826;2023-02-01T07:31:14;6.50;99.90
37050;DHT22;22958;51.232;6.826;2023-02-01T07:33:47;6.60;99.90
37050;DHT22;22958;51.232;6.826;2023-02-01T07:36:15;6.50;99.90
37050;DHT22;22958;51.232;6.826;2023-02-01T07:38:41;6.60;99.90
37050;DHT22;22958;51.232;6.826;2023-02-01T07:41:07;6.60;99.90
37050;DHT22;22958;51.232;6.826;2023-02-01T07:43:34;6.60;99.90
37050;DHT22;22958;51.232;6.826;2023-02-01T07:45:59;6.60;99.90
37050;DHT22;22958;51.232;6.826;2023-02-01T07:48:26;6.60;99.90
37050;DHT22;22958;51.232;6.826;2023-02-01T07:51:00;6.60;99.90
37050;DHT22;22958;51.232;6.826;2023-02-01T07:53:26;6.60;99.90
37050;DHT22;22958;51.232;6.826;2023-02-01T07:55:51;6.60;99.90
37050;DHT22;22958;51.232;6.826;2023-02-01T07:58:17;6.60;99.90
37050;DHT22;22958;51.232;6.826;2023-02-01T08:00:42;6.60;99.90
37050;DHT22;22958;51.232;6.826;2023-02-01T08:03:26;6.60;99.90
37050;DHT22;22958;51.232;6.826;2023-02-01T08:05:55;6.60;99.90
37050;DHT22;22958;51.232;6.826;2023-02-01T08:08:21;6.70;99.90
37050;DHT22;22958;51.232;6.826;2023-02-01T08:10:47;6.60;99.90
37050;DHT22;22958;51.232;6.826;2023-02-01T08:13:12;6.60;99.90
37050;DHT22;22958;51.232;6.826;2023-02-01T08:15:38;6.70;99.90
37050;DHT22;22958;51.232;6.826;2023-02-01T08:18:04;6.70;99.90
37050;DHT22;22958;51.232;6.826;2023-02-01T08:20:29;6.70;99.90
37050;DHT22;22958;51.232;6.826;2023-02-01T08:22:55;6.70;99.90
37050;DHT22;22958;51.232;6.826;2023-02-01T08:25:22;6.70;99.90
37050;DHT22;22958;51.232;6.826;2023-02-01T08:27:48;6.80;99.90
37050;DHT22;22958;51.232;6.826;2023-02-01T08:30:14;6.80;99.90
37050;DHT22;22958;51.232;6.826;2023-02-01T08:32:40;6.80;99.90
37050;DHT22;22958;51.232;6.826;2023-02-01T08:35:06;6.70;99.90
37050;DHT22;22958;51.232;6.826;2023-02-01T08:37:31;6.70;99.90
37050;DHT22;22958;51.232;6.826;2023-02-01T08:39:57;6.70;99.90
37050;DHT22;22958;51.232;6.826;2023-02-01T08:42:23;6.70;99.90
37050;DHT22;22958;51.232;6.826;2023-02-01T08:45:07;6.80;99.90
37050;DHT22;22958;51.232;6.826;2023-02-01T08:47:34;6.80;99.90
37050;DHT22;22958;51.232;6.826;2023-02-01T08:49:59;6.70;99.90
37050;DHT22;22958;51.232;6.826;2023-02-01T08:52:25;6.70;99.90
37050;DHT22;22958;51.232;6.826;2023-02-01T08:54:50;6.80;99.90
37050;DHT22;22958;51.232;6.826;2023-02-01T08:57:16;6.80;99.90
37050;DHT22;22958;51.232;6.826;2023-02-01T08:59:41;6.80;99.90
37050;DHT22;22958;51.232;6.826;2023-02-01T09:02:12;6.80;99.90
37050;DHT22;22958;51.232;6.826;2023-02-01T09:04:38;6.80;99.90
37050;DHT22;22958;51.232;6.826;2023-02-01T09:07:03;6.80;99.90
37050;DHT22;22958;51.232;6.826;2023-02-01T09:09:29;6.80;99.90
37050;DHT22;22958;51.232;6.826;2023-02-01T09:11:54;6.90;99.90
37050;DHT22;22958;51.232;6.826;2023-02-01T09:14:20;7.00;99.90
37050;DHT22;22958;51.232;6.826;2023-02-01T09:16:45;7.00;99.90
37050;DHT22;22958;51.232;6.826;2023-02-01T09:19:11;7.00;99.90
37050;DHT22;22958;51.232;6.826;2023-02-01T09:21:36;6.90;99.90
37050;DHT22;22958;51.232;6.826;2023-02-01T09:24:02;6.90;99.90
37050;DHT22;22958;51.232;6.826;2023-02-01T09:26:27;6.90;99.90
37050;DHT22;22958;51.232;6.826;2023-02-01T09:28:53;6.90;99.90
37050;DHT22;22958;51.232;6.826;2023-02-01T09:31:19;7.00;99.90
37050;DHT22;22958;51.232;6.826;2023-02-01T09:33:44;6.90;99.90
37050;DHT22;22958;51.232;6.826;2023-02-01T09:36:10;6.90;99.90
37050;DHT22;22958;51.232;6.826;2023-02-01T09:38:36;7.00;99.90
37050;DHT22;22958;51.232;6.826;2023-02-01T09:41:01;7.00;99.90
37050;DHT22;22958;51.232;6.826;2023-02-01T09:46:24;7.00;99.90
37050;DHT22;22958;51.232;6.826;2023-02-01T09:48:56;7.00;99.90
37050;DHT22;22958;51.232;6.826;2023-02-01T09:51:28;7.00;99.90
37050;DHT22;22958;51.232;6.826;2023-02-01T09:54:11;7.00;99.90
37050;DHT22;22958;51.232;6.826;2023-02-01T09:59:20;7.00;99.90
37050;DHT22;22958;51.232;6.826;2023-02-01T10:01:48;7.10;99.90
37050;DHT22;22958;51.232;6.826;2023-02-01T10:04:15;7.10;99.90
37050;DHT22;22958;51.232;6.826;2023-02-01T10:12:18;7.10;99.90
37050;DHT22;22958;51.232;6.826;2023-02-01T10:20:36;7.20;99.90
37050;DHT22;22958;51.232;6.826;2023-02-01T10:26:20;7.20;99.90
37050;DHT22;22958;51.232;6.826;2023-02-01T10:28:56;7.20;99.90
37050;DHT22;22958;51.232;6.826;2023-02-01T10:31:25;7.20;99.90
37050;DHT22;22958;51.232;6.826;2023-02-01T10:34:22;7.20;99.90
37050;DHT22;22958;51.232;6.826;2023-02-01T10:39:57;7.20;99.90
37050;DHT22;22958;51.232;6.826;2023-02-01T10:42:26;7.30;99.90
37050;DHT22;22958;51.232;6.826;2023-02-01T10:44:54;7.40;99.90
37050;DHT22;22958;51.232;6.826;2023-02-01T10:47:21;7.30;99.90
37050;DHT22;22958;51.232;6.826;2023-02-01T10:52:40;7.40;99.90
37050;DHT22;22958;51.232;6.826;2023-02-01T10:58:01;7.40;99.90
37050;DHT22;22958;51.232;6.826;2023-02-01T11:00:40;7.50;99.90
37050;DHT22;22958;51.232;6.826;2023-02-01T11:05:57;7.60;99.90
37050;DHT22;22958;51.232;6.826;2023-02-01T11:08:22;7.70;99.90
37050;DHT22;22958;51.232;6.826;2023-02-01T11:11:00;7.70;99.90
37050;DHT22;22958;51.232;6.826;2023-02-01T11:13:31;7.70;99.90
37050;DHT22;22958;51.232;6.826;2023-02-01T11:16:01;7.70;99.90
37050;DHT22;22958;51.232;6.826;2023-02-01T11:18:29;7.70;99.90
37050;DHT22;22958;51.232;6.826;2023-02-01T11:20:55;7.70;99.90
37050;DHT22;22958;51.232;6.826;2023-02-01T11:23:24;7.70;99.90
37050;DHT22;22958;51.232;6.826;2023-02-01T11:26:00;7.70;99.90
37050;DHT22;22958;51.232;6.826;2023-02-01T11:28:32;7.70;99.90
37050;DHT22;22958;51.232;6.826;2023-02-01T11:31:04;7.70;99.90
37050;DHT22;22958;51.232;6.826;2023-02-01T11:33:32;7.70;99.90
37050;DHT22;22958;51.232;6.826;2023-02-01T11:36:06;7.70;99.90
37050;DHT22;22958;51.232;6.826;2023-02-01T11:38:33;7.80;99.90
37050;DHT22;22958;51.232;6.826;2023-02-01T11:41:22;7.80;99.90
37050;DHT22;22958;51.232;6.826;2023-02-01T11:43:57;7.80;99.90
37050;DHT22;22958;51.232;6.826;2023-02-01T11:46:32;7.80;99.90
37050;DHT22;22958;51.232;6.826;2023-02-01T11:51:43;7.90;99.90
37050;DHT22;22958;51.232;6.826;2023-02-01T11:54:23;7.80;99.90
37050;DHT22;22958;51.232;6.826;2023-02-01T11:59:56;7.90;99.90
37050;DHT22;22958;51.232;6.826;2023-02-01T12:02:37;7.90;99.90
37050;DHT22;22958;51.232;6.826;2023-02-01T12:05:37;7.90;99.90
37050;DHT22;22958;51.232;6.826;2023-02-01T12:08:40;8.00;99.90
37050;DHT22;22958;51.232;6.826;2023-02-01T12:11:27;8.00;99.90
37050;DHT22;22958;51.232;6.826;2023-02-01T12:27:46;8.10;99.90
37050;DHT22;22958;51.232;6.826;2023-02-01T12:30:45;8.00;99.90
37050;DHT22;22958;51.232;6.826;2023-02-01T12:33:28;8.00;99.90
37050;DHT22;22958;51.232;6.826;2023-02-01T12:36:14;8.00;99.90
37050;DHT22;22958;51.232;6.826;2023-02-01T12:46:58;7.90;99.90
37050;DHT22;22958;51.232;6.826;2023-02-01T12:49:45;7.90;99.90
37050;DHT22;22958;51.232;6.826;2023-02-01T12:52:16;7.90;99.90
37050;DHT22;22958;51.232;6.826;2023-02-01T12:54:48;7.90;99.90
37050;DHT22;22958;51.232;6.826;2023-02-01T12:57:28;8.00;99.90
37050;DHT22;22958;51.232;6.826;2023-02-01T13:00:13;7.90;99.90
37050;DHT22;22958;51.232;6.826;2023-02-01T13:02:48;7.90;99.90
37050;DHT22;22958;51.232;6.826;2023-02-01T13:05:20;8.00;99.90
37050;DHT22;22958;51.232;6.826;2023-02-01T13:10:20;8.00;99.90
37050;DHT22;22958;51.232;6.826;2023-02-01T13:12:54;8.10;99.90
37050;DHT22;22958;51.232;6.826;2023-02-01T13:15:28;8.10;99.90
37050;DHT22;22958;51.232;6.826;2023-02-01T13:17:57;8.10;99.90
37050;DHT22;22958;51.232;6.826;2023-02-01T13:20:42;8.10;99.90
37050;DHT22;22958;51.232;6.826;2023-02-01T13:23:45;8.10;99.90
37050;DHT22;22958;51.232;6.826;2023-02-01T13:26:11;8.20;99.90
37050;DHT22;22958;51.232;6.826;2023-02-01T13:28:48;8.20;99.90
37050;DHT22;22958;51.232;6.826;2023-02-01T13:31:36;8.10;99.90
37050;DHT22;22958;51.232;6.826;2023-02-01T13:39:32;8.10;99.90
37050;DHT22;22958;51.232;6.826;2023-02-01T13:42:03;8.10;99.90
37050;DHT22;22958;51.232;6.826;2023-02-01T13:44:43;8.10;99.90
37050;DHT22;22958;51.232;6.826;2023-02-01T13:47:29;8.10;99.90
37050;DHT22;22958;51.232;6.826;2023-02-01T13:49:58;8.10;99.90
37050;DHT22;22958;51.232;6.826;2023-02-01T13:52:28;8.10;99.90
37050;DHT22;22958;51.232;6.826;2023-02-01T13:55:16;8.20;99.90
37050;DHT22;22958;51.232;6.826;2023-02-01T13:57:50;8.10;99.90
37050;DHT22;22958;51.232;6.826;2023-02-01T14:00:30;8.20;99.90
37050;DHT22;22958;51.232;6.826;2023-02-01T14:10:57;8.30;99.90
37050;DHT22;22958;51.232;6.826;2023-02-01T14:13:29;8.40;99.90
37050;DHT22;22958;51.232;6.826;2023-02-01T14:24:20;8.40;99.90
37050;DHT22;22958;51.232;6.826;2023-02-01T14:26:51;8.50;99.90
37050;DHT22;22958;51.232;6.826;2023-02-01T14:29:36;8.50;99.90
37050;DHT22;22958;51.232;6.826;2023-02-01T14:32:22;8.40;99.90
37050;DHT22;22958;51.232;6.826;2023-02-01T14:34:53;8.50;99.90
37050;DHT22;22958;51.232;6.826;2023-02-01T14:53:16;8.60;99.90
37050;DHT22;22958;51.232;6.826;2023-02-01T14:55:54;8.60;99.90
37050;DHT22;22958;51.232;6.826;2023-02-01T15:01:13;8.60;99.90
37050;DHT22;22958;51.232;6.826;2023-02-01T15:06:29;8.60;99.90
37050;DHT22;22958;51.232;6.826;2023-02-01T15:09:20;8.60;99.90
37050;DHT22;22958;51.232;6.826;2023-02-01T15:14:23;8.60;99.90
37050;DHT22;22958;51.232;6.826;2023-02-01T15:16:48;8.60;99.90
37050;DHT22;22958;51.232;6.826;2023-02-01T15:19:20;8.60;99.90
37050;DHT22;22958;51.232;6.826;2023-02-01T15:21:51;8.60;99.90
37050;DHT22;22958;51.232;6.826;2023-02-01T15:24:29;8.60;99.90
37050;DHT22;22958;51.232;6.826;2023-02-01T15:26:55;8.60;99.90
37050;DHT22;22958;51.232;6.826;2023-02-01T15:29:27;8.60;99.90
37050;DHT22;22958;51.232;6.826;2023-02-01T15:31:57;8.60;99.90
37050;DHT22;22958;51.232;6.826;2023-02-01T15:34:23;8.60;99.90
37050;DHT22;22958;51.232;6.826;2023-02-01T15:36:49;8.60;99.90
37050;DHT22;22958;51.232;6.826;2023-02-01T15:39:22;8.60;99.90
37050;DHT22;22958;51.232;6.826;2023-02-01T15:42:08;8.50;99.90
37050;DHT22;22958;51.232;6.826;2023-02-01T15:44:40;8.60;99.90
37050;DHT22;22958;51.232;6.826;2023-02-01T15:47:29;8.60;99.90
37050;DHT22;22958;51.232;6.826;2023-02-01T15:49:57;8.50;99.90
37050;DHT22;22958;51.232;6.826;2023-02-01T15:52:39;8.50;99.90
37050;DHT22;22958;51.232;6.826;2023-02-01T15:55:08;8.40;99.90
37050;DHT22;22958;51.232;6.826;2023-02-01T15:57:42;8.40;99.90
37050;DHT22;22958;51.232;6.826;2023-02-01T16:00:24;8.50;99.90
37050;DHT22;22958;51.232;6.826;2023-02-01T16:02:58;8.50;99.90
37050;DHT22;22958;51.232;6.826;2023-02-01T16:05:39;8.40;99.90
37050;DHT22;22958;51.232;6.826;2023-02-01T16:08:25;8.40;99.90
37050;DHT22;22958;51.232;6.826;2023-02-01T16:10:53;8.40;99.90
37050;DHT22;22958;51.232;6.826;2023-02-01T16:13:20;8.40;99.90
37050;DHT22;22958;51.232;6.826;2023-02-01T16:15:46;8.40;99.90
37050;DHT22;22958;51.232;6.826;2023-02-01T16:18:13;8.50;99.90
37050;DHT22;22958;51.232;6.826;2023-02-01T16:20:39;8.50;99.90
37050;DHT22;22958;51.232;6.826;2023-02-01T16:23:05;8.50;99.90
37050;DHT22;22958;51.232;6.826;2023-02-01T16:25:31;8.50;99.90
37050;DHT22;22958;51.232;6.826;2023-02-01T16:27:57;8.50;99.90
37050;DHT22;22958;51.232;6.826;2023-02-01T16:30:22;8.50;99.90
37050;DHT22;22958;51.232;6.826;2023-02-01T16:32:51;8.50;99.90
37050;DHT22;22958;51.232;6.826;2023-02-01T16:35:23;8.40;99.90
37050;DHT22;22958;51.232;6.826;2023-02-01T16:37:48;8.40;99.90
37050;DHT22;22958;51.232;6.826;2023-02-01T16:40:15;8.30;99.90
37050;DHT22;22958;51.232;6.826;2023-02-01T16:42:41;8.40;99.90
37050;DHT22;22958;51.232;6.826;2023-02-01T16:45:07;8.40;99.90
37050;DHT22;22958;51.232;6.826;2023-02-01T16:47:33;8.40;99.90
37050;DHT22;22958;51.232;6.826;2023-02-01T16:49:59;8.40;99.90
37050;DHT22;22958;51.232;6.826;2023-02-01T16:52:26;8.40;99.90
37050;DHT22;22958;51.232;6.826;2023-02-01T16:54:51;8.40;99.90
37050;DHT22;22958;51.232;6.826;2023-02-01T16:57:19;8.40;99.90
37050;DHT22;22958;51.232;6.826;2023-02-01T16:59:49;8.40;99.90
37050;DHT22;22958;51.232;6.826;2023-02-01T17:02:17;8.40;99.90
37050;DHT22;22958;51.232;6.826;2023-02-01T17:04:44;8.40;99.90
37050;DHT22;22958;51.232;6.826;2023-02-01T17:07:13;8.30;99.90
37050;DHT22;22958;51.232;6.826;2023-02-01T17:09:39;8.30;99.90
37050;DHT22;22958;51.232;6.826;2023-02-01T17:12:05;8.30;99.90
37050;DHT22;22958;51.232;6.826;2023-02-01T17:14:34;8.30;99.90
37050;DHT22;22958;51.232;6.826;2023-02-01T17:17:01;8.30;99.90
37050;DHT22;22958;51.232;6.826;2023-02-01T17:19:27;8.30;99.90
37050;DHT22;22958;51.232;6.826;2023-02-01T17:21:54;8.40;99.90
37050;DHT22;22958;51.232;6.826;2023-02-01T17:24:26;8.30;99.90
37050;DHT22;22958;51.232;6.826;2023-02-01T17:26:53;8.30;99.90
37050;DHT22;22958;51.232;6.826;2023-02-01T17:29:19;8.30;99.90
37050;DHT22;22958;51.232;6.826;2023-02-01T17:31:52;8.40;99.90
37050;DHT22;22958;51.232;6.826;2023-02-01T17:34:19;8.40;99.90
37050;DHT22;22958;51.232;6.826;2023-02-01T17:36:45;8.30;99.90
37050;DHT22;22958;51.232;6.826;2023-02-01T17:39:12;8.40;99.90
37050;DHT22;22958;51.232;6.826;2023-02-01T17:42:01;8.40;99.90
37050;DHT22;22958;51.232;6.826;2023-02-01T17:44:27;8.40;99.90
37050;DHT22;22958;51.232;6.826;2023-02-01T17:46:53;8.40;99.90
37050;DHT22;22958;51.232;6.826;2023-02-01T17:49:20;8.40;99.90
37050;DHT22;22958;51.232;6.826;2023-02-01T17:51:45;8.40;99.90
37050;DHT22;22958;51.232;6.826;2023-02-01T17:54:12;8.40;99.90
37050;DHT22;22958;51.232;6.826;2023-02-01T17:56:38;8.40;99.90
37050;DHT22;22958;51.232;6.826;2023-02-01T17:59:04;8.40;99.90
37050;DHT22;22958;51.232;6.826;2023-02-01T18:01:29;8.40;99.90
37050;DHT22;22958;51.232;6.826;2023-02-01T18:03:55;8.40;99.90
37050;DHT22;22958;51.232;6.826;2023-02-01T18:06:23;8.50;99.90